Time;durP1;ratioP1;P1;durP2;ratioP2;P2;SDS_P1;SDS_P2;PMS_P1;PMS_P2;Temp;Humidity;BMP_temperature;BMP_pressure;BME280_temperature;BME280_humidity;BME280_pressure;Samples;Min_cycle;Max_cycle;Signal;HPM_P1;HPM_P2
2024/03/25 00:02:44;;;;;;;11.10;7.80;;;;;;;2.77;90.47;97951.56;448921;1238;139172;-61
2024/03/25 00:12:52;;;;;;;12.60;7.40;;;;;;;2.59;91.36;97950.89;447786;1238;345666;-59
2024/03/25 00:22:55;;;;;;;11.50;8.20;;;;;;;2.52;91.70;97942.95;447471;1236;138799;-59
2024/03/25 00:32:59;;;;;;;8.60;6.30;;;;;;;2.50;91.85;97939.93;447496;1239;139082;-58
2024/03/25 00:43:02;;;;;;;8.00;5.30;;;;;;;2.54;92.55;97938.03;448114;1235;138517;-58
2024/03/25 00:53:07;;;;;;;7.20;5.30;;;;;;;2.58;92.58;97928.09;447998;1235;139455;-62
2024/03/25 01:03:11;;;;;;;7.10;5.30;;;;;;;2.62;92.77;97924.10;448010;1236;138468;-62
2024/03/25 01:13:14;;;;;;;7.20;4.90;;;;;;;2.64;92.95;97923.26;448094;1239;138688;-61
2024/03/25 01:23:19;;;;;;;7.30;5.60;;;;;;;2.64;92.94;97919.12;447946;1235;139381;-62
2024/03/25 01:33:23;;;;;;;6.90;4.80;;;;;;;2.65;93.07;97911.83;447824;1238;139103;-62
2024/03/25 01:43:28;;;;;;;8.10;5.00;;;;;;;2.67;93.06;97913.79;448278;1238;138567;-61
2024/03/25 01:53:33;;;;;;;8.10;5.70;;;;;;;2.71;93.38;97914.25;448207;1236;138469;-57
2024/03/25 02:03:37;;;;;;;5.90;4.70;;;;;;;2.58;92.51;97906.34;449107;1238;139509;-58
2024/03/25 02:13:41;;;;;;;7.00;5.20;;;;;;;2.24;92.52;97903.96;448277;1238;138571;-59
2024/03/25 02:23:47;;;;;;;7.20;5.30;;;;;;;1.96;93.06;97892.91;447999;1238;138752;-61
2024/03/25 02:33:50;;;;;;;6.10;5.00;;;;;;;1.82;94.26;97892.48;448633;1238;139030;-60
2024/03/25 02:43:54;;;;;;;7.60;6.00;;;;;;;1.85;95.05;97905.11;448507;1239;138629;-59
2024/03/25 02:53:58;;;;;;;6.60;5.40;;;;;;;1.87;95.50;97911.02;448199;1236;139174;-59
2024/03/25 03:04:01;;;;;;;6.30;5.70;;;;;;;1.90;95.88;97907.91;448181;1239;139100;-61
2024/03/25 03:14:04;;;;;;;6.90;5.80;;;;;;;1.92;96.44;97913.66;447954;1236;138464;-61
2024/03/25 03:24:09;;;;;;;7.00;5.10;;;;;;;1.97;96.56;97917.73;448163;1239;138507;-58
2024/03/25 03:34:13;;;;;;;7.20;5.60;;;;;;;2.02;97.00;97923.66;447796;1238;139049;-58
2024/03/25 03:44:18;;;;;;;7.30;5.60;;;;;;;2.09;97.08;97922.91;448299;1239;138523;-58
2024/03/25 03:54:21;;;;;;;6.00;4.10;;;;;;;2.21;97.94;97920.88;448288;1236;138698;-58
2024/03/25 04:04:25;;;;;;;6.20;5.40;;;;;;;2.28;97.56;97927.24;448188;1239;139027;-58
2024/03/25 04:14:29;;;;;;;6.70;5.50;;;;;;;2.31;97.74;97931.17;449302;1238;138708;-58
2024/03/25 04:24:34;;;;;;;7.10;5.50;;;;;;;2.39;97.80;97927.82;448831;1238;139040;-61
2024/03/25 04:34:37;;;;;;;8.40;6.00;;;;;;;2.43;97.64;97927.38;449737;1238;139254;-59
2024/03/25 04:44:41;;;;;;;6.80;5.50;;;;;;;2.42;97.89;97927.27;448151;1236;138870;-61
2024/03/25 04:54:48;;;;;;;6.70;5.70;;;;;;;2.43;97.68;97934.20;448168;1239;139046;-59
2024/03/25 05:04:52;;;;;;;5.10;4.70;;;;;;;2.43;98.06;97938.28;447873;1236;139423;-59
2024/03/25 05:14:57;;;;;;;7.60;6.30;;;;;;;2.54;98.56;97944.26;448712;1236;139059;-56
2024/03/25 05:25:01;;;;;;;8.60;6.40;;;;;;;2.72;99.24;97954.63;448906;1239;139219;-57
2024/03/25 05:35:06;;;;;;;10.60;7.50;;;;;;;3.11;99.84;97953.04;449072;1237;138963;-57
2024/03/25 05:45:10;;;;;;;8.60;6.70;;;;;;;3.81;100.00;97957.98;450071;1239;139242;-58
2024/03/25 05:55:13;;;;;;;8.70;7.80;;;;;;;4.61;99.19;97955.14;449780;1239;139382;-61
2024/03/25 06:05:16;;;;;;;8.00;6.40;;;;;;;5.24;96.52;97956.72;448919;1236;139524;-61
2024/03/25 06:15:22;;;;;;;6.10;5.20;;;;;;;5.76;95.38;97960.98;449677;1237;138932;-60
2024/03/25 06:25:25;;;;;;;6.80;6.10;;;;;;;7.24;94.92;97966.80;448707;1238;139344;-61
2024/03/25 06:35:29;;;;;;;7.50;6.50;;;;;;;8.29;89.76;97973.52;448036;1238;138796;-61
2024/03/25 06:45:32;;;;;;;8.40;5.50;;;;;;;9.03;87.86;97982.53;447949;1236;139261;-61
2024/03/25 06:55:35;;;;;;;5.20;4.70;;;;;;;9.15;84.39;97988.04;448946;1239;139601;-62
2024/03/25 07:05:38;;;;;;;5.60;5.10;;;;;;;8.59;82.91;98001.41;449162;1239;138957;-61
2024/03/25 07:15:43;;;;;;;5.60;5.10;;;;;;;7.52;82.00;98005.80;448132;1239;139579;-60
2024/03/25 07:25:46;;;;;;;5.10;4.60;;;;;;;6.61;82.75;98018.06;448124;1239;138540;-66
2024/03/25 07:35:49;;;;;;;4.70;4.20;;;;;;;5.88;83.95;98023.90;447818;1239;139145;-66
2024/03/25 07:45:52;;;;;;;5.50;4.90;;;;;;;5.39;85.24;98027.02;447878;1237;138991;-60
2024/03/25 07:55:55;;;;;;;4.40;3.90;;;;;;;5.77;86.77;98034.92;447830;1237;139173;-56
2024/03/25 08:05:58;;;;;;;4.80;4.30;;;;;;;5.47;86.51;98048.20;448481;1239;139189;-56
2024/03/25 08:16:02;;;;;;;4.80;3.80;;;;;;;5.20;88.05;98049.98;447872;1239;139263;-57
2024/03/25 08:26:06;;;;;;;5.20;4.40;;;;;;;5.06;89.11;98057.31;447962;1239;138404;-57
2024/03/25 08:36:10;;;;;;;5.80;5.00;;;;;;;4.99;90.33;98065.41;448231;1239;139171;-53
2024/03/25 08:46:13;;;;;;;6.40;5.70;;;;;;;4.76;91.07;98075.01;447740;1239;139108;-54
2024/03/25 08:56:18;;;;;;;4.10;3.80;;;;;;;4.66;92.73;98085.19;447427;1239;138451;-60
2024/03/25 09:06:21;;;;;;;5.30;4.60;;;;;;;4.76;93.62;98088.77;447843;1239;138883;-66
2024/03/25 09:16:25;;;;;;;5.40;4.90;;;;;;;5.51;96.06;98087.13;448062;1238;139180;-67
2024/03/25 09:26:28;;;;;;;4.50;4.00;;;;;;;6.77;95.12;98099.02;448542;1240;138971;-61
2024/03/25 09:36:31;;;;;;;2.90;2.70;;;;;;;7.20;91.40;98106.34;448891;1239;139704;-66
2024/03/25 09:46:36;;;;;;;4.10;3.70;;;;;;;6.75;89.54;98117.59;448246;1239;139084;-57
2024/03/25 09:56:41;;;;;;;3.70;2.70;;;;;;;6.90;91.37;98119.77;447100;1239;139915;-67
2024/03/25 10:06:44;;;;;;;3.70;3.40;;;;;;;8.09;89.92;98116.77;447551;1240;138525;-58
2024/03/25 10:16:49;;;;;;;3.40;3.10;;;;;;;8.08;87.83;98117.38;447337;1239;139281;-58
2024/03/25 10:26:52;;;;;;;3.80;3.30;;;;;;;8.11;86.18;98131.11;447231;1235;138774;-61
2024/03/25 10:36:58;;;;;;;6.40;3.70;;;;;;;7.90;86.12;98129.02;446998;1239;139094;-62
2024/03/25 10:47:05;;;;;;;6.20;4.00;;;;;;;8.23;86.40;98128.57;449023;1238;139796;-67
2024/03/25 10:57:10;;;;;;;7.00;4.40;;;;;;;8.68;85.23;98123.58;447088;1239;139402;-65
2024/03/25 11:07:15;;;;;;;4.80;4.20;;;;;;;9.04;84.32;98126.48;447485;1241;138666;-58
2024/03/25 11:17:18;;;;;;;2.20;2.00;;;;;;;9.73;84.34;98127.83;448095;1239;139466;-64
2024/03/25 11:27:26;;;;;;;3.20;2.50;;;;;;;10.30;81.75;98118.83;447123;1241;139996;-63
2024/03/25 11:37:28;;;;;;;;;;;;;;;10.47;80.16;98117.38;448104;1239;138948;-64
2024/03/25 11:47:32;;;;;;;2.70;2.50;;;;;;;10.35;78.13;98122.05;447282;1241;126476;-60
2024/03/25 11:57:38;;;;;;;5.20;3.80;;;;;;;9.25;77.81;98146.24;447703;1240;139902;-63
2024/03/25 12:07:41;;;;;;;3.30;3.10;;;;;;;8.20;78.70;98173.94;447154;1240;139089;-58
2024/03/25 12:17:46;;;;;;;3.00;2.80;;;;;;;7.33;80.82;98180.45;443226;1235;5085366;-58
2024/03/25 12:27:51;;;;;;;2.00;1.90;;;;;;;7.37;83.92;98176.83;446842;1236;139603;-67
2024/03/25 12:37:55;;;;;;;3.70;2.50;;;;;;;8.19;84.73;98170.92;447592;1235;137973;-53
2024/03/25 12:47:58;;;;;;;2.40;2.30;;;;;;;9.14;84.24;98162.02;447985;1235;139819;-56
2024/03/25 12:58:02;;;;;;;2.50;2.20;;;;;;;9.52;82.92;98164.67;446900;1239;139568;-65
2024/03/25 13:08:08;;;;;;;2.50;2.30;;;;;;;9.20;82.84;98173.55;447548;1240;139102;-60
2024/03/25 13:18:11;;;;;;;2.80;2.60;;;;;;;9.34;83.29;98178.33;448196;1239;138881;-65
2024/03/25 13:28:14;;;;;;;3.60;3.30;;;;;;;9.46;82.54;98180.16;447214;1240;141141;-66
2024/03/25 13:38:17;;;;;;;1.30;1.20;;;;;;;8.68;79.97;98227.46;448120;1235;139092;-67
2024/03/25 13:48:21;;;;;;;4.40;2.70;;;;;;;7.43;81.07;98235.20;447360;1239;139034;-65
2024/03/25 13:58:26;;;;;;;3.10;1.80;;;;;;;7.01;82.74;98236.64;448487;1239;138567;-62
2024/03/25 14:08:29;;;;;;;3.70;2.10;;;;;;;6.93;84.51;98238.10;448606;1239;138922;-70
2024/03/25 14:18:33;;;;;;;1.90;1.80;;;;;;;6.99;85.20;98233.88;447265;1239;139022;-73
2024/03/25 14:28:37;;;;;;;2.00;1.80;;;;;;;6.83;85.21;98237.06;447089;1236;139429;-59
2024/03/25 14:38:40;;;;;;;2.00;1.90;;;;;;;6.59;86.48;98228.77;446625;1239;139291;-57
2024/03/25 14:48:43;;;;;;;3.70;3.40;;;;;;;6.81;88.03;98229.52;446932;1239;139253;-59
2024/03/25 14:58:46;;;;;;;3.70;3.00;;;;;;;7.10;88.53;98223.33;447038;1239;139783;-63
2024/03/25 15:08:50;;;;;;;4.40;4.00;;;;;;;6.98;87.82;98219.46;447062;1239;138861;-65
2024/03/25 15:18:53;;;;;;;4.20;3.90;;;;;;;6.80;88.25;98222.12;447081;1239;138619;-68
2024/03/25 15:28:56;;;;;;;4.10;3.20;;;;;;;6.64;88.48;98227.20;447120;1235;138692;-63
2024/03/25 15:38:59;;;;;;;5.00;4.50;;;;;;;6.43;88.98;98234.36;447469;1237;139227;-59
2024/03/25 15:49:03;;;;;;;6.00;4.90;;;;;;;6.17;89.57;98244.30;447394;1238;138794;-64
2024/03/25 15:59:06;;;;;;;5.30;4.80;;;;;;;6.06;91.26;98256.70;447741;1239;138487;-65
2024/03/25 16:09:09;;;;;;;4.40;3.50;;;;;;;6.12;91.44;98278.17;448783;1238;139076;-61
2024/03/25 16:19:13;;;;;;;5.20;3.30;;;;;;;5.85;89.62;98297.44;448450;1235;139371;-80
2024/03/25 16:29:17;;;;;;;7.40;6.30;;;;;;;5.59;89.91;98301.20;447359;1236;139623;-64
2024/03/25 16:39:20;;;;;;;6.90;6.20;;;;;;;5.64;90.69;98302.25;447648;1235;139674;-72
2024/03/25 16:49:25;;;;;;;7.00;5.90;;;;;;;5.58;90.68;98311.33;448408;1239;138941;-54
2024/03/25 16:59:29;;;;;;;19.60;14.80;;;;;;;5.27;91.05;98321.23;448154;1235;139642;-64
2024/03/25 17:09:33;;;;;;;13.70;12.40;;;;;;;4.84;91.58;98330.95;447862;1239;139523;-62
2024/03/25 17:19:37;;;;;;;14.00;12.10;;;;;;;4.50;92.82;98346.52;450440;1238;139558;-60
2024/03/25 17:29:40;;;;;;;16.00;14.00;;;;;;;4.22;94.10;98357.80;449021;1236;139398;-48
2024/03/25 17:39:43;;;;;;;21.60;19.30;;;;;;;3.92;95.48;98369.18;448801;1239;139920;-51
2024/03/25 17:49:46;;;;;;;24.30;21.30;;;;;;;3.63;96.48;98374.96;448891;1236;139553;-48
2024/03/25 17:59:50;;;;;;;21.70;17.40;;;;;;;3.33;97.36;98378.64;448429;1238;139780;-66
2024/03/25 18:09:54;;;;;;;25.50;22.60;;;;;;;2.99;98.13;98376.06;448664;1239;139255;-62
2024/03/25 18:19:57;;;;;;;20.60;18.40;;;;;;;2.66;99.30;98394.19;448375;1238;139467;-58
2024/03/25 18:30:00;;;;;;;21.50;19.10;;;;;;;2.41;100.00;98409.59;448870;1235;139706;-59
2024/03/25 18:40:09;;;;;;;30.40;25.70;;;;;;;2.35;100.00;98426.11;448758;1238;139715;-68
2024/03/25 18:50:13;;;;;;;39.50;31.20;;;;;;;2.43;100.00;98438.34;449565;1237;139306;-67
2024/03/25 19:00:19;;;;;;;94.50;57.00;;;;;;;2.55;100.00;98450.70;448284;1239;139010;-57
2024/03/25 19:10:22;;;;;;;106.20;61.80;;;;;;;2.65;100.00;98458.52;448026;1235;139289;-59
2024/03/25 19:20:26;;;;;;;52.10;32.10;;;;;;;2.73;100.00;98466.06;448574;1239;139301;-58
2024/03/25 19:30:29;;;;;;;52.60;37.20;;;;;;;2.84;100.00;98467.39;448106;1239;139158;-58
2024/03/25 19:40:33;;;;;;;29.90;25.70;;;;;;;2.92;100.00;98468.23;448452;1238;139834;-52
2024/03/25 19:50:36;;;;;;;36.50;29.40;;;;;;;2.89;100.00;98475.11;448191;1235;139507;-60
2024/03/25 20:00:39;;;;;;;41.70;31.30;;;;;;;2.87;100.00;98476.60;448716;1238;139421;-67
2024/03/25 20:10:42;;;;;;;41.40;28.20;;;;;;;2.97;100.00;98486.84;449924;1235;140422;-68
2024/03/25 20:20:45;;;;;;;62.00;34.90;;;;;;;3.00;100.00;98484.98;449806;1238;139743;-66
2024/03/25 20:30:49;;;;;;;33.90;26.90;;;;;;;2.94;100.00;98497.52;448856;1238;139680;-65
2024/03/25 20:40:52;;;;;;;33.10;25.50;;;;;;;2.69;100.00;98499.95;448989;1238;139581;-65
2024/03/25 20:50:56;;;;;;;74.30;41.50;;;;;;;2.46;100.00;98508.33;449529;1235;140703;-59
2024/03/25 21:00:59;;;;;;;71.80;45.20;;;;;;;2.41;100.00;98514.44;448747;1239;139492;-70
2024/03/25 21:11:03;;;;;;;41.20;29.80;;;;;;;2.45;100.00;98514.92;448565;1235;139153;-57
2024/03/25 21:21:06;;;;;;;30.10;24.60;;;;;;;2.55;100.00;98519.80;448959;1239;139716;-59
2024/03/25 21:31:10;;;;;;;34.00;26.70;;;;;;;2.62;100.00;98524.50;449360;1235;139770;-54
2024/03/25 21:41:14;;;;;;;31.30;25.30;;;;;;;2.57;100.00;98523.34;449845;1236;139495;-55
2024/03/25 21:51:17;;;;;;;26.30;21.80;;;;;;;2.25;100.00;98523.83;448908;1238;139595;-56
2024/03/25 22:01:20;;;;;;;29.60;20.60;;;;;;;1.92;100.00;98535.85;448891;1235;139396;-57
2024/03/25 22:11:23;;;;;;;24.10;18.00;;;;;;;1.63;100.00;98535.77;449527;1237;139647;-55
2024/03/25 22:55:10;;;;;;;23.00;19.00;;;;;;;0.56;100.00;98561.56;449516;1238;139451;-61
2024/03/25 23:05:13;;;;;;;25.40;21.50;;;;;;;0.42;100.00;98553.50;449209;1235;139118;-61
2024/03/25 23:15:16;;;;;;;28.50;22.40;;;;;;;0.27;100.00;98549.90;448494;1238;140266;-61
2024/03/25 23:25:19;;;;;;;26.40;21.30;;;;;;;0.10;100.00;98556.77;448658;1238;139796;-62
2024/03/25 23:35:23;;;;;;;25.80;20.50;;;;;;;-0.12;100.00;98563.23;448827;1238;140153;-62
2024/03/25 23:45:26;;;;;;;37.30;27.20;;;;;;;-0.34;100.00;98571.27;461717;1237;139742;-61
2024/03/25 23:55:30;;;;;;;35.00;26.00;;;;;;;-0.48;100.00;98573.45;451593;1238;140343;-60
